Impacts TAF Board INFO
FOR SITUATIONAL AWARENESS. NOT TO BE USED FOR FLIGHT PLANNING PURPOSES.
IDs:

KBWI - Baltimore-Washington, MD, US

Issued at 2340 UTC 21 Nov 2017
Updated at 0339 UTC 22 Nov 2017
Potential Impact None Slight Moderate High
Time0254Z 22/04Z 22/05Z 22/06Z 22/07Z 22/08Z 22/09Z 22/10Z 22/11Z 22/12Z 22/13Z 22/14Z 22/15Z 22/16Z>>
Type OBS PRVL PRVL PRVL PRVL PRVL PRVL PRVL PRVL PRVL PRVL PRVL PRVL PRVL
VIS 10 >6 >6 >6 >6 >6 >6 >6 >6 >6 >6 >6 >6 >6
CIG 250 250 250 250 250 45 20 20 35 35 35 60 60 60
Cover BKN BKN BKN BKN BKN BKN BKN BKN BKN BKN BKN BKN BKN BKN
FltCat VFR VFR VFR VFR VFR VFR MVFR MVFR VFR VFR VFR VFR VFR VFR
WX -- -- -- -- -- -RA -RA -RA -- -- -- -- -- --
WDir 190 200 200 200 200 240 250 250 290 290 290 310 310 310
WSpd 6 7 7 7 7 6 6 6 6 6 6 15 15 15
WGst -- -- -- -- -- -- -- -- -- -- -- 30 30 30

Raw TAF
KBWI 212340Z 2200/2306 VRB03KT P6SM SCT250
  FM220200 20007KT P6SM BKN250
  FM220800 24006KT P6SM -RA BKN045
  FM220900 25006KT P6SM -RA BKN020
  FM221100 29006KT P6SM BKN035
  FM221400 31015G30KT P6SM BKN060
  FM230200 35008KT P6SM SKC


Raw METAR
KBWI 220254Z 19006KT 10SM FEW090 SCT140 BKN250 12/07 A3003 RMK AO2 SLP169 T01220067 50000
KBWI 220154Z 21005KT 10SM FEW055 FEW090 SCT140 OVC250 12/06 A3004 RMK AO2 SLP172 T01220061
KBWI 220054Z 18006KT 10SM FEW140 BKN250 13/06 A3004 RMK AO2 SLP172 T01280056

METAR Board
Radar Display
Forecast Discussion

FOR SITUATIONAL AWARENESS. NOT TO BE USED FOR FLIGHT PLANNING PURPOSES.